ROMMA est une association bénévole à but non lucratif. Votre soutien est indispensable : ADHERER à ROMMA ou FAIRE un DON

Lyon - (69, Rhône)

Plaine lyonnaise (169 m)   Longitude: 04° 49' 55" E   Latitude: 45° 43' 50" N Station partenaire n°124
 

Détail journalier du     <<     >>

Température Precipitation Humidité Pression Vent Dir Rafale Dir. rafale Ensol.
Heure (°C) (mm) (%) (hPa) (km/h) (km/h) (min)
01:00 19.8073101613N35N0
02:00 19.9072101615N34N0
03:00 19.7073101611N32N0
04:00 19.3074101514N34N0
05:00 19.7070101516N37N0
06:00 19.7070101519N47N0
07:00 19.5070101518N48N0
08:00 19.3068101415N43N0
09:00 19.9064101517N47N0
10:00 20.9056101615N43N30
11:00 21.9054101622N50N60
12:00 22.8049101620S48SO60
13:00 23.5041101623SO48S60
14:00 24.3039101624SO55S60
15:00 24.7040101521SE55SO60
16:00 25.1039101525SO53S60
17:00 24.9041101419S53SO60
18:00 24.1045101420SE48SE60
19:00 22.9050101514S34SO0
20:00 22.1051101510N29SO0
21:00 21.8052101510N26N0
22:00 21.805410159N26N0
23:00 21.6058101611N32S0
minuit 21.0063101615N47S0

Graphique du 13-10-2019

 

Serveur OMMA